createdAt,value
2022-11-07T00:02:21.497Z,8.50
2022-11-07T00:04:49.485Z,11.55
2022-11-07T00:07:17.622Z,9.60
2022-11-07T00:09:45.635Z,8.23
2022-11-07T00:12:13.653Z,10.02
2022-11-07T00:14:41.301Z,6.40
2022-11-07T00:17:09.639Z,9.70
2022-11-07T00:19:37.599Z,8.15
2022-11-07T00:22:06.004Z,11.43
2022-11-07T00:24:33.981Z,5.28
2022-11-07T00:27:01.854Z,10.07
2022-11-07T00:29:29.931Z,5.85
2022-11-07T00:31:59.727Z,5.80
2022-11-07T00:34:27.800Z,7.93
2022-11-07T00:36:55.774Z,5.97
2022-11-07T00:39:23.610Z,7.75
2022-11-07T00:41:51.467Z,5.47
2022-11-07T00:44:19.449Z,5.88
2022-11-07T00:46:47.350Z,6.35
2022-11-07T00:49:15.310Z,5.13
2022-11-07T00:51:43.520Z,7.05
2022-11-07T00:54:11.445Z,6.75
2022-11-07T00:56:39.412Z,6.25
2022-11-07T00:59:07.663Z,7.63
2022-11-07T01:01:35.847Z,4.68
2022-11-07T01:04:22.971Z,4.18
2022-11-07T01:06:50.987Z,5.95
2022-11-07T01:09:21.837Z,5.53
2022-11-07T01:11:50.372Z,7.88
2022-11-07T01:14:20.359Z,5.07
2022-11-07T01:16:48.673Z,4.93
2022-11-07T01:19:16.842Z,4.82
2022-11-07T01:21:44.846Z,5.40
2022-11-07T01:24:13.918Z,5.05
2022-11-07T01:26:43.471Z,3.63
2022-11-07T01:29:11.719Z,4.32
2022-11-07T01:31:40.803Z,4.90
2022-11-07T01:34:08.785Z,5.40
2022-11-07T01:36:37.678Z,7.65
2022-11-07T01:39:06.436Z,4.47
2022-11-07T01:41:37.036Z,6.60
2022-11-07T01:44:07.861Z,3.75
2022-11-07T01:46:45.668Z,7.05
2022-11-07T01:49:19.175Z,5.75
2022-11-07T01:51:49.746Z,9.95
2022-11-07T01:54:22.463Z,6.85
2022-11-07T01:56:52.312Z,4.93
2022-11-07T01:59:24.026Z,4.05
2022-11-07T02:01:52.392Z,5.63
2022-11-07T02:04:24.155Z,4.25
2022-11-07T02:06:58.411Z,6.82
2022-11-07T02:09:26.644Z,4.25
2022-11-07T02:11:54.524Z,4.88
2022-11-07T02:14:22.512Z,7.38
2022-11-07T02:16:50.508Z,4.82
2022-11-07T02:19:40.566Z,3.63
2022-11-07T02:22:39.316Z,5.38
2022-11-07T02:25:12.214Z,6.07
2022-11-07T02:27:42.066Z,5.07
2022-11-07T02:30:22.578Z,5.00
2022-11-07T02:32:50.462Z,4.85
2022-11-07T02:35:38.896Z,8.60
2022-11-07T02:38:15.931Z,4.03
2022-11-07T02:40:45.772Z,5.55
2022-11-07T02:43:16.573Z,6.30
2022-11-07T02:45:46.686Z,7.80
2022-11-07T02:48:14.526Z,6.70
2022-11-07T02:50:42.826Z,6.20
2022-11-07T02:53:10.865Z,6.95
2022-11-07T02:55:39.008Z,7.28
2022-11-07T02:58:06.946Z,5.05
2022-11-07T03:00:34.908Z,6.22
2022-11-07T03:03:03.030Z,6.72
2022-11-07T03:05:31.039Z,6.10
2022-11-07T03:07:59.236Z,5.70
2022-11-07T03:10:27.323Z,4.63
2022-11-07T03:12:55.404Z,5.50
2022-11-07T03:15:23.806Z,5.90
2022-11-07T03:17:51.528Z,8.45
2022-11-07T03:20:19.961Z,11.77
2022-11-07T03:22:47.695Z,6.45
2022-11-07T03:25:15.967Z,7.82
2022-11-07T03:27:50.316Z,11.07
2022-11-07T03:30:19.371Z,10.95
2022-11-07T03:32:47.509Z,11.00
2022-11-07T03:35:15.244Z,10.35
2022-11-07T03:37:46.648Z,10.70
2022-11-07T03:40:15.637Z,8.68
2022-11-07T03:42:44.754Z,12.68
2022-11-07T03:45:14.786Z,12.85
2022-11-07T03:47:44.686Z,9.43
2022-11-07T03:50:19.105Z,10.80
2022-11-07T03:52:47.788Z,8.20
2022-11-07T03:55:18.176Z,9.38
2022-11-07T03:57:47.505Z,10.55
2022-11-07T04:00:16.020Z,10.50
2022-11-07T04:02:44.504Z,10.05
2022-11-07T04:05:12.876Z,11.00
2022-11-07T04:07:40.797Z,13.27
2022-11-07T04:10:08.932Z,10.98
2022-11-07T04:12:55.642Z,13.38
2022-11-07T04:15:41.764Z,9.23
2022-11-07T04:18:09.550Z,11.40
2022-11-07T04:20:37.320Z,12.07
2022-11-07T04:23:05.334Z,10.18
2022-11-07T04:26:11.905Z,9.95
2022-11-07T04:28:39.987Z,14.43
2022-11-07T04:31:07.809Z,8.93
2022-11-07T04:33:36.006Z,9.18
2022-11-07T04:36:04.296Z,11.30
2022-11-07T04:38:32.558Z,9.52
2022-11-07T04:41:43.673Z,11.98
2022-11-07T04:44:54.799Z,12.25
2022-11-07T04:47:53.882Z,13.95
2022-11-07T04:50:46.525Z,8.93
2022-11-07T04:53:34.714Z,12.70
2022-11-07T04:56:34.335Z,12.10
2022-11-07T05:00:00.721Z,11.68
2022-11-07T05:02:40.884Z,10.07
2022-11-07T05:05:55.283Z,18.55
2022-11-07T05:08:35.807Z,10.18
2022-11-07T05:11:41.517Z,8.85
2022-11-07T05:14:48.058Z,11.55
2022-11-07T05:17:39.067Z,15.65
2022-11-07T05:20:34.755Z,10.75
2022-11-07T05:23:34.445Z,10.25
2022-11-07T05:26:40.688Z,8.27
2022-11-07T05:29:46.574Z,11.93
2022-11-07T05:32:55.802Z,10.70
2022-11-07T05:36:04.225Z,10.02
2022-11-07T05:39:32.025Z,12.10
2022-11-07T05:45:31.843Z,6.60
2022-11-07T05:48:40.684Z,6.85
2022-11-07T05:51:09.011Z,6.60
2022-11-07T05:53:36.981Z,7.90
2022-11-07T05:56:05.180Z,7.80
2022-11-07T05:58:33.165Z,5.28
2022-11-07T06:01:05.843Z,6.65
2022-11-07T06:03:34.300Z,7.20
2022-11-07T06:06:02.367Z,10.00
2022-11-07T06:08:30.412Z,7.25
2022-11-07T06:10:58.407Z,8.32
2022-11-07T06:13:26.298Z,8.73
2022-11-07T06:15:54.315Z,9.75
2022-11-07T06:18:22.625Z,7.72
2022-11-07T06:20:50.563Z,8.10
2022-11-07T06:23:19.332Z,6.10
2022-11-07T06:25:47.766Z,6.28
2022-11-07T06:28:16.349Z,7.80
2022-11-07T06:30:45.081Z,8.68
2022-11-07T06:33:16.971Z,10.60
2022-11-07T06:35:48.743Z,9.20
2022-11-07T06:40:46.818Z,8.07
2022-11-07T06:43:18.187Z,9.48
2022-11-07T06:45:48.090Z,8.60
2022-11-07T06:48:16.489Z,9.05
2022-11-07T06:50:44.761Z,6.90
2022-11-07T06:53:14.261Z,5.55
2022-11-07T06:55:42.991Z,5.03
2022-11-07T06:58:11.599Z,8.45
2022-11-07T07:00:40.262Z,6.18
2022-11-07T07:03:08.772Z,6.25
2022-11-07T07:05:36.958Z,4.78
2022-11-07T07:08:14.235Z,8.10
2022-11-07T07:10:44.414Z,6.35
2022-11-07T07:13:14.078Z,4.60
2022-11-07T07:15:50.877Z,6.50
2022-11-07T07:18:20.236Z,5.05
2022-11-07T07:20:50.604Z,5.50
2022-11-07T07:23:20.373Z,7.82
2022-11-07T07:25:49.547Z,10.43
2022-11-07T07:28:17.893Z,11.18
2022-11-07T07:30:50.536Z,9.35
2022-11-07T07:33:22.320Z,9.25
2022-11-07T07:35:50.565Z,7.07
2022-11-07T07:38:18.650Z,6.82
2022-11-07T07:40:46.693Z,6.63
2022-11-07T07:43:14.696Z,6.50
2022-11-07T07:45:43.017Z,5.25
2022-11-07T07:48:11.215Z,10.25
2022-11-07T07:50:39.138Z,7.88
2022-11-07T07:53:09.238Z,7.60
2022-11-07T07:55:37.443Z,8.40
2022-11-07T07:58:05.249Z,11.25
2022-11-07T08:00:33.417Z,8.15
2022-11-07T08:03:05.989Z,14.50
2022-11-07T08:05:34.256Z,6.22
2022-11-07T08:08:02.077Z,7.22
2022-11-07T08:10:45.445Z,8.98
2022-11-07T08:13:13.451Z,5.53
2022-11-07T08:15:41.276Z,5.45
2022-11-07T08:18:09.449Z,6.88
2022-11-07T08:20:37.825Z,5.78
2022-11-07T08:23:12.922Z,4.60
2022-11-07T08:25:50.372Z,10.48
2022-11-07T08:28:21.418Z,6.35
2022-11-07T08:31:19.083Z,5.68
2022-11-07T08:33:46.965Z,8.32
2022-11-07T08:36:14.918Z,7.95
2022-11-07T08:38:43.105Z,5.88
2022-11-07T08:41:11.248Z,7.50
2022-11-07T08:43:39.148Z,6.55
2022-11-07T08:46:07.633Z,8.27
2022-11-07T08:48:35.605Z,6.28
2022-11-07T08:51:03.400Z,7.55
2022-11-07T08:53:32.363Z,5.70
2022-11-07T08:56:06.408Z,6.97
2022-11-07T08:58:35.676Z,7.35
2022-11-07T09:01:08.659Z,6.55
2022-11-07T09:03:46.274Z,9.00
2022-11-07T09:06:18.419Z,8.95
2022-11-07T09:08:49.270Z,9.32
2022-11-07T09:11:19.314Z,8.93
2022-11-07T09:13:47.798Z,11.85
2022-11-07T09:16:18.763Z,11.00
2022-11-07T09:18:48.985Z,11.98
2022-11-07T09:21:22.143Z,12.57
2022-11-07T09:23:55.316Z,7.80
2022-11-07T09:26:24.125Z,9.05
2022-11-07T09:28:55.041Z,10.57
2022-11-07T09:31:27.319Z,12.18
2022-11-07T09:33:55.863Z,14.60
2022-11-07T09:36:24.338Z,11.00
2022-11-07T09:38:52.487Z,11.15
2022-11-07T09:41:40.333Z,9.90
2022-11-07T09:44:39.212Z,9.43
2022-11-07T09:47:06.944Z,13.43
2022-11-07T09:49:44.369Z,13.80
2022-11-07T09:52:49.637Z,13.73
2022-11-07T09:55:20.901Z,9.63
2022-11-07T09:57:50.941Z,9.80
2022-11-07T10:00:21.701Z,14.88
2022-11-07T10:02:53.813Z,9.43
2022-11-07T10:05:46.572Z,12.52
2022-11-07T10:08:52.513Z,14.95
2022-11-07T10:11:23.290Z,12.82
2022-11-07T10:13:57.738Z,13.80
2022-11-07T10:16:38.512Z,8.02
2022-11-07T10:19:18.428Z,9.65
2022-11-07T10:22:12.665Z,8.23
2022-11-07T10:27:14.890Z,10.73
2022-11-07T10:29:53.841Z,10.07
2022-11-07T10:32:49.825Z,13.73
2022-11-07T10:35:29.461Z,11.23
2022-11-07T10:38:05.034Z,17.17
2022-11-07T10:40:39.115Z,10.23
2022-11-07T10:43:14.158Z,10.70
2022-11-07T10:45:43.105Z,13.80
2022-11-07T10:48:14.525Z,11.10
2022-11-07T10:50:51.497Z,10.32
2022-11-07T10:53:20.979Z,12.35
2022-11-07T10:55:51.051Z,10.23
2022-11-07T10:58:25.243Z,8.65
2022-11-07T11:01:12.925Z,10.43
2022-11-07T11:03:45.437Z,10.88
2022-11-07T11:06:27.721Z,13.60
2022-11-07T11:08:56.623Z,12.52
2022-11-07T11:11:32.847Z,10.45
2022-11-07T11:14:13.266Z,9.20
2022-11-07T11:16:42.941Z,12.60
2022-11-07T11:19:21.255Z,14.10
2022-11-07T11:21:51.336Z,9.75
2022-11-07T11:24:38.725Z,12.00
2022-11-07T11:27:28.230Z,14.63
2022-11-07T11:30:00.268Z,10.38
2022-11-07T11:32:42.875Z,14.52
2022-11-07T11:35:28.521Z,13.65
2022-11-07T11:38:13.525Z,11.40
2022-11-07T11:40:46.942Z,12.13
2022-11-07T11:43:23.409Z,17.13
2022-11-07T11:46:01.281Z,11.70
2022-11-07T11:49:11.975Z,12.85
2022-11-07T11:51:52.262Z,12.90
2022-11-07T11:54:20.865Z,13.43
2022-11-07T11:56:55.960Z,11.63
2022-11-07T11:59:56.802Z,11.52
2022-11-07T12:02:37.297Z,13.75
2022-11-07T12:05:10.977Z,14.30
2022-11-07T12:10:41.511Z,11.23
2022-11-07T12:13:20.836Z,13.88
2022-11-07T12:15:57.450Z,12.13
2022-11-07T12:18:46.292Z,13.52
2022-11-07T12:21:28.651Z,13.55
2022-11-07T12:24:05.206Z,14.07
2022-11-07T12:26:57.734Z,14.57
2022-11-07T12:29:43.759Z,17.33
2022-11-07T12:32:32.076Z,16.92
2022-11-07T12:35:21.573Z,16.42
2022-11-07T12:38:01.268Z,16.55
2022-11-07T12:40:48.357Z,15.00
2022-11-07T12:43:19.357Z,16.15
2022-11-07T12:46:07.539Z,15.00
2022-11-07T12:49:05.435Z,16.88
2022-11-07T12:51:42.470Z,16.23
2022-11-07T12:54:29.157Z,15.73
2022-11-07T12:56:57.882Z,15.63
2022-11-07T12:59:31.506Z,12.57
2022-11-07T13:04:47.712Z,14.25
2022-11-07T13:07:40.595Z,18.50
2022-11-07T13:10:19.203Z,16.98
2022-11-07T13:13:03.062Z,15.32
2022-11-07T13:18:26.970Z,14.15
2022-11-07T13:21:02.963Z,11.95
2022-11-07T13:23:31.212Z,17.02
2022-11-07T13:26:25.973Z,16.88
2022-11-07T13:29:01.047Z,15.43
2022-11-07T13:31:38.471Z,15.52
2022-11-07T13:34:19.387Z,14.60
2022-11-07T13:36:49.956Z,18.40
2022-11-07T13:39:18.518Z,20.50
2022-11-07T13:41:48.216Z,19.10
2022-11-07T13:44:36.470Z,20.15
2022-11-07T13:47:13.552Z,18.52
2022-11-07T13:49:46.059Z,15.88
2022-11-07T13:52:36.781Z,16.70
2022-11-07T13:55:22.417Z,17.70
2022-11-07T13:57:57.989Z,19.02
2022-11-07T14:00:27.047Z,18.52
2022-11-07T14:02:57.454Z,16.90
2022-11-07T14:05:34.952Z,14.85
2022-11-07T14:08:16.775Z,16.52
2022-11-07T14:10:47.921Z,19.88
2022-11-07T14:13:24.789Z,19.63
2022-11-07T14:15:59.678Z,17.15
2022-11-07T14:18:32.205Z,19.88
2022-11-07T14:21:01.423Z,17.52
2022-11-07T14:23:35.000Z,18.08
2022-11-07T14:28:40.012Z,20.35
2022-11-07T14:31:35.792Z,17.15
2022-11-07T14:34:13.915Z,17.40
2022-11-07T14:37:00.133Z,19.77
2022-11-07T14:39:31.808Z,16.13
2022-11-07T14:42:02.479Z,21.95
2022-11-07T14:44:53.463Z,20.58
2022-11-07T14:47:28.383Z,18.25
2022-11-07T14:49:57.109Z,19.73
2022-11-07T14:52:36.476Z,17.08
2022-11-07T14:55:20.550Z,16.77
2022-11-07T14:57:48.820Z,17.55
2022-11-07T15:00:20.165Z,15.25
2022-11-07T15:02:50.864Z,17.90
2022-11-07T15:05:41.997Z,17.17
2022-11-07T15:08:33.522Z,16.67
2022-11-07T15:11:25.181Z,12.77
2022-11-07T15:14:02.541Z,17.75
2022-11-07T15:16:37.957Z,15.07
2022-11-07T15:19:08.921Z,17.35
2022-11-07T15:21:39.530Z,13.48
2022-11-07T15:24:31.890Z,16.88
2022-11-07T15:27:03.338Z,21.88
2022-11-07T15:29:33.728Z,15.65
2022-11-07T15:32:45.605Z,18.48
2022-11-07T15:35:42.278Z,16.92
2022-11-07T15:38:04.703Z,17.08
2022-11-07T15:40:32.770Z,20.33
2022-11-07T15:43:01.159Z,14.23
2022-11-07T15:45:31.004Z,18.42
2022-11-07T15:48:01.890Z,15.70
2022-11-07T15:50:29.697Z,16.38
2022-11-07T15:52:57.225Z,19.95
2022-11-07T15:55:25.257Z,24.15
2022-11-07T15:57:54.565Z,17.48
2022-11-07T16:00:25.513Z,18.00
2022-11-07T16:02:53.725Z,18.23
2022-11-07T16:05:21.847Z,16.85
2022-11-07T16:07:49.579Z,20.83
2022-11-07T16:10:22.105Z,17.20
2022-11-07T16:12:50.948Z,17.00
2022-11-07T16:15:20.663Z,18.48
2022-11-07T16:17:49.454Z,16.98
2022-11-07T16:20:20.537Z,22.25
2022-11-07T16:22:50.444Z,17.10
2022-11-07T16:25:22.411Z,24.50
2022-11-07T16:28:00.421Z,23.23
2022-11-07T16:30:28.717Z,23.58
2022-11-07T16:32:57.264Z,25.63
2022-11-07T16:35:26.391Z,21.15
2022-11-07T16:37:54.709Z,20.42
2022-11-07T16:40:25.253Z,25.60
2022-11-07T16:42:53.312Z,27.83
2022-11-07T16:45:22.612Z,20.55
2022-11-07T16:47:50.738Z,31.73
2022-11-07T16:50:19.158Z,25.80
2022-11-07T16:52:46.833Z,21.55
2022-11-07T16:55:19.588Z,20.40
2022-11-07T16:57:48.620Z,20.48
2022-11-07T17:00:22.392Z,24.45
2022-11-07T17:05:18.920Z,28.55
2022-11-07T17:07:48.484Z,26.30
2022-11-07T17:10:17.845Z,25.55
2022-11-07T17:12:46.182Z,20.75
2022-11-07T17:15:13.946Z,23.48
2022-11-07T17:17:42.569Z,26.85
2022-11-07T17:20:48.499Z,21.65
2022-11-07T17:23:09.599Z,23.67
2022-11-07T17:25:38.645Z,20.65
2022-11-07T17:28:07.760Z,21.80
2022-11-07T17:30:36.164Z,24.80
2022-11-07T17:33:04.735Z,19.83
2022-11-07T17:35:33.465Z,23.05
2022-11-07T17:38:01.637Z,27.50
2022-11-07T17:40:31.494Z,27.15
2022-11-07T17:42:59.917Z,22.67
2022-11-07T17:45:28.541Z,19.40
2022-11-07T17:47:56.966Z,20.20
2022-11-07T17:50:25.350Z,25.58
2022-11-07T17:52:53.922Z,22.08
2022-11-07T17:55:22.060Z,23.83
2022-11-07T17:57:50.395Z,22.80
2022-11-07T18:00:22.202Z,23.58
2022-11-07T18:02:52.601Z,25.70
2022-11-07T18:05:22.832Z,21.50
2022-11-07T18:07:57.607Z,23.20
2022-11-07T18:10:27.358Z,21.08
2022-11-07T18:12:59.973Z,22.85
2022-11-07T18:15:28.365Z,26.98
2022-11-07T18:17:56.455Z,22.75
2022-11-07T18:20:24.572Z,21.77
2022-11-07T18:22:53.254Z,21.52
2022-11-07T18:25:22.065Z,26.13
2022-11-07T18:27:59.308Z,22.77
2022-11-07T18:30:31.504Z,22.60
2022-11-07T18:33:08.828Z,27.02
2022-11-07T18:35:36.951Z,25.50
2022-11-07T18:38:05.105Z,26.38
2022-11-07T18:40:33.737Z,30.17
2022-11-07T18:43:01.434Z,23.10
2022-11-07T18:45:29.561Z,23.55
2022-11-07T18:47:57.826Z,23.75
2022-11-07T18:50:25.841Z,22.45
2022-11-07T18:52:54.470Z,23.50
2022-11-07T18:55:27.221Z,25.63
2022-11-07T18:58:03.842Z,25.24
2022-11-07T19:00:32.375Z,25.70
2022-11-07T19:03:00.509Z,21.23
2022-11-07T19:05:29.073Z,24.45
2022-11-07T19:07:57.278Z,24.85
2022-11-07T19:10:26.863Z,21.13
2022-11-07T19:12:54.804Z,23.08
2022-11-07T19:15:25.004Z,22.70
2022-11-07T19:17:53.450Z,27.30
2022-11-07T19:20:21.715Z,23.23
2022-11-07T19:22:50.225Z,25.55
2022-11-07T19:25:19.042Z,25.58
2022-11-07T19:27:51.734Z,25.00
2022-11-07T19:30:19.913Z,22.58
2022-11-07T19:32:48.289Z,22.88
2022-11-07T19:35:16.985Z,27.17
2022-11-07T19:37:44.944Z,25.30
2022-11-07T19:40:13.140Z,27.08
2022-11-07T19:42:41.596Z,21.83
2022-11-07T19:45:10.136Z,24.60
2022-11-07T19:47:38.207Z,26.05
2022-11-07T19:50:06.424Z,24.85
2022-11-07T19:52:34.517Z,28.30
2022-11-07T19:55:02.549Z,24.95
2022-11-07T19:57:30.645Z,28.95
2022-11-07T19:59:58.383Z,23.58
2022-11-07T20:02:33.010Z,21.67
2022-11-07T20:05:02.884Z,24.77
2022-11-07T20:07:31.111Z,24.10
2022-11-07T20:09:59.579Z,24.65
2022-11-07T20:12:28.396Z,24.58
2022-11-07T20:14:56.536Z,32.67
2022-11-07T20:17:24.567Z,23.88
2022-11-07T20:19:52.643Z,21.58
2022-11-07T20:22:20.645Z,29.30
2022-11-07T20:24:48.795Z,23.00
2022-11-07T20:27:16.885Z,21.88
2022-11-07T20:29:45.301Z,19.63
2022-11-07T20:32:13.473Z,28.00
2022-11-07T20:34:41.339Z,21.38
2022-11-07T20:37:09.204Z,25.58
2022-11-07T20:39:37.716Z,26.90
2022-11-07T20:42:05.953Z,23.50
2022-11-07T20:44:34.318Z,30.48
2022-11-07T20:47:02.522Z,23.50
2022-11-07T20:49:30.791Z,22.73
2022-11-07T20:51:58.649Z,27.08
2022-11-07T20:54:28.652Z,24.85
2022-11-07T20:56:56.802Z,27.95
2022-11-07T20:59:24.933Z,29.00
2022-11-07T21:01:55.637Z,27.08
2022-11-07T21:04:25.780Z,34.78
2022-11-07T21:06:54.053Z,23.58
2022-11-07T21:09:23.621Z,21.77
2022-11-07T21:11:51.411Z,28.80
2022-11-07T21:14:19.425Z,31.95
2022-11-07T21:16:47.454Z,25.50
2022-11-07T21:19:16.235Z,27.55
2022-11-07T21:21:44.203Z,29.05
2022-11-07T21:24:12.736Z,26.73
2022-11-07T21:26:40.973Z,25.73
2022-11-07T21:29:09.306Z,25.40
2022-11-07T21:31:39.579Z,26.70
2022-11-07T21:34:10.453Z,23.33
2022-11-07T21:36:39.223Z,27.20
2022-11-07T21:39:10.327Z,23.83
2022-11-07T21:41:38.533Z,20.73
2022-11-07T21:44:07.580Z,26.27
2022-11-07T21:46:35.776Z,24.23
2022-11-07T21:49:06.219Z,25.88
2022-11-07T21:51:35.455Z,20.88
2022-11-07T21:54:04.812Z,20.25
2022-11-07T21:56:38.881Z,24.00
2022-11-07T21:59:09.402Z,22.00
2022-11-07T22:01:39.616Z,26.02
2022-11-07T22:04:11.556Z,20.50
2022-11-07T22:06:45.637Z,24.00
2022-11-07T22:09:16.190Z,25.30
2022-11-07T22:11:44.718Z,21.50
2022-11-07T22:14:17.879Z,25.55
2022-11-07T22:16:46.473Z,22.48
2022-11-07T22:19:15.521Z,18.15
2022-11-07T22:21:43.528Z,22.52
2022-11-07T22:24:11.688Z,17.05
2022-11-07T22:26:39.895Z,21.02
2022-11-07T22:29:08.008Z,19.98
2022-11-07T22:31:36.430Z,22.15
2022-11-07T22:34:04.564Z,21.40
2022-11-07T22:36:34.903Z,19.45
2022-11-07T22:39:03.048Z,18.42
2022-11-07T22:41:31.344Z,18.17
2022-11-07T22:44:12.067Z,16.83
2022-11-07T22:46:39.952Z,18.90
2022-11-07T22:49:07.846Z,17.38
2022-11-07T22:51:35.971Z,18.60
2022-11-07T22:54:07.242Z,21.17
2022-11-07T22:56:36.511Z,19.50
2022-11-07T22:59:05.743Z,21.45
2022-11-07T23:01:36.890Z,17.42
2022-11-07T23:04:06.314Z,17.00
2022-11-07T23:06:35.066Z,17.55
2022-11-07T23:09:03.163Z,20.15
2022-11-07T23:11:45.900Z,17.23
2022-11-07T23:14:18.609Z,18.52
2022-11-07T23:16:49.773Z,19.85
2022-11-07T23:19:20.636Z,23.75
2022-11-07T23:21:49.553Z,18.90
2022-11-07T23:24:17.499Z,19.52
2022-11-07T23:26:45.360Z,18.05
2022-11-07T23:29:19.730Z,13.52
2022-11-07T23:31:48.975Z,16.23
2022-11-07T23:34:18.048Z,18.98
2022-11-07T23:36:45.832Z,16.27
2022-11-07T23:39:16.746Z,15.77
2022-11-07T23:41:45.145Z,15.32
2022-11-07T23:44:14.557Z,19.15
2022-11-07T23:47:14.823Z,15.27
2022-11-07T23:50:01.292Z,16.52
2022-11-07T23:52:29.066Z,18.65
2022-11-07T23:55:15.289Z,15.82
2022-11-07T23:58:01.449Z,15.40
